SNIPER1 ETNL-ETNL
Flight info
| Callsign | SNIPER1 |
|---|---|
| Flight time | 0h 12m |
| Altitude | 30000 |
| Route | NL127 LUWIL DCT UBAKA DCT PENEK DCT HOZ DCT MILGU DCT TALEG TR208VFRSTAY1/0130 TALEGIFR DCT MILGU DCT HOZ DCT LUPAK DCT TABOK DCT EBAWE DCT LAG |
| Aircraft | EUFI/M-GIRLTUYZ/LB1 |
Departure
| Time | 2026-04-24 20:25 |
|---|---|
| Airport | Rostock-Laage Airport (ETNL) |
Arrival
| Time | 2026-04-24 20:37 |
|---|---|
| Airport | Rostock-Laage Airport (ETNL) |
| Time | Latitude | Longitude | Altitude | Speed | Heading |
|---|---|---|---|---|---|
| 2026-04-24 18:54 | 51.04748 | 12.53535 | 18078 ft | 373 kts | 221° |
| 2026-04-24 18:55 | 51.00474 | 12.48912 | 18157 ft | 359 kts | 220° |
| 2026-04-24 18:55 | 50.98488 | 12.46556 | 18155 ft | 359 kts | 222° |
| 2026-04-24 18:55 | 50.96448 | 12.44091 | 18192 ft | 380 kts | 220° |
| 2026-04-24 18:56 | 50.94306 | 12.41636 | 18721 ft | 375 kts | 219° |
| 2026-04-24 18:56 | 50.92215 | 12.39261 | 19338 ft | 365 kts | 220° |
| 2026-04-24 18:56 | 50.90202 | 12.36873 | 19776 ft | 357 kts | 223° |
| 2026-04-24 18:56 | 50.88299 | 12.34398 | 20136 ft | 358 kts | 224° |
| 2026-04-24 18:57 | 50.86237 | 12.31647 | 20492 ft | 416 kts | 224° |
| 2026-04-24 18:57 | 50.84087 | 12.28754 | 20862 ft | 402 kts | 224° |
| 2026-04-24 18:57 | 50.81941 | 12.25864 | 21238 ft | 406 kts | 224° |
| 2026-04-24 18:57 | 50.79797 | 12.22975 | 21626 ft | 406 kts | 224° |
| 2026-04-24 18:58 | 50.77630 | 12.20047 | 22047 ft | 411 kts | 224° |
| 2026-04-24 18:58 | 50.75467 | 12.17111 | 22446 ft | 411 kts | 224° |
| 2026-04-24 18:58 | 50.73287 | 12.14144 | 22861 ft | 416 kts | 225° |
| 2026-04-24 18:58 | 50.71091 | 12.11144 | 23203 ft | 421 kts | 225° |
| 2026-04-24 18:59 | 50.68839 | 12.08031 | 23234 ft | 472 kts | 225° |
| 2026-04-24 18:59 | 50.66295 | 12.04455 | 23429 ft | 486 kts | 225° |
| 2026-04-24 18:59 | 50.63782 | 12.00921 | 23431 ft | 487 kts | 225° |
| 2026-04-24 18:59 | 50.60834 | 11.98898 | 23381 ft | 498 kts | 174° |
| 2026-04-24 19:00 | 50.57840 | 12.01616 | 23417 ft | 533 kts | 134° |
| 2026-04-24 19:00 | 50.55330 | 12.05812 | 23321 ft | 519 kts | 134° |
| 2026-04-24 19:00 | 50.52870 | 12.09958 | 23132 ft | 518 kts | 133° |
| 2026-04-24 19:00 | 50.50427 | 12.14083 | 22935 ft | 513 kts | 133° |
| 2026-04-24 19:01 | 50.48467 | 12.18563 | 22830 ft | 500 kts | 96° |
| 2026-04-24 19:01 | 50.49320 | 12.23603 | 22852 ft | 490 kts | 44° |
| 2026-04-24 19:01 | 50.51691 | 12.27591 | 22819 ft | 491 kts | 43° |
| 2026-04-24 19:01 | 50.54070 | 12.31427 | 22719 ft | 489 kts | 42° |
| 2026-04-24 19:02 | 50.55643 | 12.33959 | 22669 ft | 489 kts | 42° |
| 2026-04-24 19:02 | 50.58776 | 12.39003 | 22563 ft | 485 kts | 42° |
| 2026-04-24 19:02 | 50.61141 | 12.42808 | 22486 ft | 486 kts | 42° |
| 2026-04-24 19:02 | 50.63500 | 12.46603 | 22406 ft | 484 kts | 42° |
| 2026-04-24 19:03 | 50.65856 | 12.50392 | 22317 ft | 484 kts | 42° |
| 2026-04-24 19:03 | 50.68217 | 12.54191 | 22238 ft | 485 kts | 42° |
| 2026-04-24 19:03 | 50.70567 | 12.57977 | 22142 ft | 483 kts | 42° |
| 2026-04-24 19:03 | 50.72918 | 12.61760 | 22039 ft | 483 kts | 42° |
| 2026-04-24 19:04 | 50.75267 | 12.65540 | 21930 ft | 482 kts | 42° |
| 2026-04-24 19:04 | 50.77614 | 12.69320 | 21825 ft | 481 kts | 42° |
| 2026-04-24 19:04 | 50.79927 | 12.73047 | 21717 ft | 481 kts | 42° |
| 2026-04-24 19:04 | 50.82265 | 12.76818 | 21615 ft | 480 kts | 42° |
| 2026-04-24 19:05 | 50.84592 | 12.80576 | 21566 ft | 475 kts | 42° |
| 2026-04-24 19:05 | 50.86913 | 12.84321 | 21669 ft | 480 kts | 42° |
| 2026-04-24 19:05 | 50.89259 | 12.88105 | 21650 ft | 482 kts | 42° |
| 2026-04-24 19:05 | 50.91590 | 12.91870 | 21601 ft | 478 kts | 42° |
| 2026-04-24 19:06 | 50.93928 | 12.95652 | 21571 ft | 480 kts | 42° |
| 2026-04-24 19:06 | 50.96261 | 12.99417 | 21569 ft | 478 kts | 42° |
| 2026-04-24 19:06 | 50.98599 | 13.03186 | 21551 ft | 480 kts | 42° |
| 2026-04-24 19:06 | 51.00941 | 13.06938 | 21536 ft | 476 kts | 38° |
| 2026-04-24 19:07 | 51.03605 | 13.09828 | 21653 ft | 473 kts | 21° |
| 2026-04-24 19:07 | 51.06704 | 13.11301 | 21567 ft | 460 kts | 5° |
| 2026-04-24 19:07 | 51.08844 | 13.11757 | 21610 ft | 460 kts | 4° |
| 2026-04-24 19:07 | 51.13054 | 13.12620 | 21663 ft | 461 kts | 4° |
| 2026-04-24 19:08 | 51.16232 | 13.13276 | 21665 ft | 459 kts | 4° |
| 2026-04-24 19:08 | 51.19404 | 13.13939 | 21659 ft | 461 kts | 4° |
| 2026-04-24 19:08 | 51.22586 | 13.14615 | 21633 ft | 461 kts | 4° |
| 2026-04-24 19:08 | 51.25758 | 13.15308 | 21550 ft | 459 kts | 4° |
| 2026-04-24 19:09 | 51.28925 | 13.16015 | 21464 ft | 460 kts | 4° |
| 2026-04-24 19:09 | 51.32032 | 13.16481 | 21489 ft | 445 kts | 349° |
| 2026-04-24 19:09 | 51.34767 | 13.14438 | 21359 ft | 448 kts | 313° |
| 2026-04-24 19:09 | 51.36628 | 13.10544 | 21135 ft | 432 kts | 299° |
| 2026-04-24 19:10 | 51.37720 | 13.06024 | 21937 ft | 450 kts | 287° |
| 2026-04-24 19:10 | 51.37819 | 13.01043 | 22371 ft | 461 kts | 262° |
| 2026-04-24 19:10 | 51.36996 | 12.96053 | 22160 ft | 460 kts | 254° |
| 2026-04-24 19:10 | 51.35826 | 12.91291 | 21953 ft | 462 kts | 248° |
| 2026-04-24 19:11 | 51.34226 | 12.86907 | 21777 ft | 467 kts | 237° |
| 2026-04-24 19:11 | 51.32083 | 12.82995 | 21571 ft | 468 kts | 226° |
| 2026-04-24 19:11 | 51.29491 | 12.79804 | 21672 ft | 479 kts | 216° |
| 2026-04-24 19:11 | 51.26641 | 12.77064 | 21921 ft | 476 kts | 214° |
| 2026-04-24 19:12 | 51.23783 | 12.74350 | 22257 ft | 483 kts | 214° |
| 2026-04-24 19:12 | 51.20887 | 12.71596 | 22612 ft | 482 kts | 214° |
| 2026-04-24 19:12 | 51.17995 | 12.68844 | 22953 ft | 488 kts | 214° |
| 2026-04-24 19:12 | 51.15078 | 12.66062 | 23258 ft | 488 kts | 214° |
| 2026-04-24 19:13 | 51.13148 | 12.64220 | 23461 ft | 488 kts | 214° |
| 2026-04-24 19:13 | 51.09218 | 12.60460 | 23627 ft | 494 kts | 214° |
| 2026-04-24 19:13 | 51.06323 | 12.57688 | 23637 ft | 491 kts | 214° |
| 2026-04-24 19:13 | 51.03392 | 12.54878 | 23629 ft | 493 kts | 214° |
| 2026-04-24 19:14 | 51.00462 | 12.52066 | 23626 ft | 492 kts | 214° |
| 2026-04-24 19:14 | 50.97537 | 12.49258 | 23611 ft | 491 kts | 214° |
| 2026-04-24 19:14 | 50.94616 | 12.46450 | 23594 ft | 492 kts | 214° |
| 2026-04-24 19:14 | 50.91686 | 12.43632 | 23563 ft | 491 kts | 214° |
| 2026-04-24 19:15 | 50.88773 | 12.40828 | 23502 ft | 490 kts | 214° |
| 2026-04-24 19:15 | 50.85858 | 12.38013 | 23508 ft | 491 kts | 215° |
| 2026-04-24 19:15 | 50.82943 | 12.35193 | 23561 ft | 491 kts | 215° |
| 2026-04-24 19:15 | 50.80031 | 12.32373 | 23632 ft | 491 kts | 215° |
| 2026-04-24 19:16 | 50.74236 | 12.26750 | 23653 ft | 491 kts | 215° |
| 2026-04-24 19:16 | 50.71321 | 12.23923 | 23653 ft | 492 kts | 215° |
| 2026-04-24 19:16 | 50.68394 | 12.21085 | 23621 ft | 491 kts | 215° |
| 2026-04-24 19:17 | 50.65510 | 12.18294 | 23594 ft | 488 kts | 215° |
| 2026-04-24 19:17 | 50.62601 | 12.15481 | 23565 ft | 491 kts | 215° |
| 2026-04-24 19:17 | 50.59671 | 12.12746 | 23511 ft | 490 kts | 208° |
| 2026-04-24 19:17 | 50.56363 | 12.11282 | 23155 ft | 501 kts | 186° |
| 2026-04-24 19:18 | 50.53013 | 12.12434 | 22924 ft | 507 kts | 149° |
| 2026-04-24 19:18 | 50.50644 | 12.16508 | 22898 ft | 513 kts | 112° |
| 2026-04-24 19:18 | 50.50226 | 12.21836 | 23072 ft | 502 kts | 74° |
| 2026-04-24 19:18 | 50.51886 | 12.26660 | 23205 ft | 499 kts | 44° |
| 2026-04-24 19:19 | 50.54496 | 12.29923 | 23180 ft | 480 kts | 25° |
| 2026-04-24 19:19 | 50.57468 | 12.32364 | 23214 ft | 485 kts | 24° |
| 2026-04-24 19:19 | 50.60451 | 12.34769 | 23217 ft | 480 kts | 24° |
| 2026-04-24 19:19 | 50.63430 | 12.37170 | 23214 ft | 482 kts | 24° |
| 2026-04-24 19:20 | 50.66417 | 12.39580 | 23202 ft | 481 kts | 24° |
| 2026-04-24 19:20 | 50.69392 | 12.41984 | 23179 ft | 481 kts | 24° |
| 2026-04-24 19:20 | 50.71362 | 12.43577 | 23156 ft | 481 kts | 24° |
| 2026-04-24 19:20 | 50.75339 | 12.46795 | 23097 ft | 479 kts | 24° |
| 2026-04-24 19:21 | 50.77305 | 12.48388 | 23059 ft | 480 kts | 24° |
| 2026-04-24 19:21 | 50.81242 | 12.51579 | 22989 ft | 479 kts | 24° |
| 2026-04-24 19:21 | 50.84203 | 12.53982 | 22934 ft | 479 kts | 24° |
| 2026-04-24 19:21 | 50.87170 | 12.56392 | 22879 ft | 480 kts | 24° |
| 2026-04-24 19:22 | 50.89174 | 12.58021 | 22839 ft | 479 kts | 24° |
| 2026-04-24 19:22 | 50.93089 | 12.61209 | 22754 ft | 478 kts | 24° |
| 2026-04-24 19:22 | 50.95051 | 12.62807 | 22694 ft | 479 kts | 24° |
| 2026-04-24 19:22 | 50.98005 | 12.65215 | 22608 ft | 477 kts | 24° |
| 2026-04-24 19:23 | 51.00953 | 12.67621 | 22540 ft | 476 kts | 24° |
| 2026-04-24 19:23 | 51.03904 | 12.70028 | 22509 ft | 477 kts | 24° |
| 2026-04-24 19:23 | 51.07807 | 12.73214 | 22492 ft | 476 kts | 24° |
| 2026-04-24 19:23 | 51.10754 | 12.75625 | 22472 ft | 476 kts | 24° |
| 2026-04-24 19:24 | 51.13704 | 12.78038 | 22470 ft | 477 kts | 23° |
| 2026-04-24 19:24 | 51.15662 | 12.79640 | 22452 ft | 477 kts | 23° |
| 2026-04-24 19:24 | 51.18609 | 12.82052 | 22421 ft | 476 kts | 23° |
| 2026-04-24 19:24 | 51.21558 | 12.84468 | 22376 ft | 477 kts | 23° |
| 2026-04-24 19:25 | 51.24643 | 12.86135 | 22304 ft | 464 kts | 5° |
| 2026-04-24 19:25 | 51.27851 | 12.86870 | 22324 ft | 468 kts | 4° |
| 2026-04-24 19:25 | 51.32099 | 12.87930 | 22248 ft | 469 kts | 13° |
| 2026-04-24 19:25 | 51.35022 | 12.90310 | 22018 ft | 481 kts | 35° |
| 2026-04-24 19:26 | 51.36584 | 12.92920 | 21989 ft | 485 kts | 51° |
| 2026-04-24 19:26 | 51.38019 | 12.97885 | 22132 ft | 505 kts | 73° |
| 2026-04-24 19:26 | 51.38250 | 13.03481 | 22136 ft | 508 kts | 96° |
| 2026-04-24 19:26 | 51.37199 | 13.08800 | 22123 ft | 515 kts | 118° |
| 2026-04-24 19:27 | 51.35021 | 13.13319 | 22174 ft | 514 kts | 139° |
| 2026-04-24 19:27 | 51.32034 | 13.16360 | 22249 ft | 513 kts | 160° |
| 2026-04-24 19:27 | 51.28596 | 13.17614 | 22137 ft | 500 kts | 181° |
| 2026-04-24 19:27 | 51.25218 | 13.16880 | 22086 ft | 487 kts | 203° |
| 2026-04-24 19:28 | 51.22293 | 13.14308 | 22122 ft | 475 kts | 224° |
| 2026-04-24 19:28 | 51.19793 | 13.10823 | 22254 ft | 479 kts | 225° |
| 2026-04-24 19:28 | 51.17305 | 13.07301 | 22365 ft | 477 kts | 225° |
| 2026-04-24 19:28 | 51.14824 | 13.03789 | 22396 ft | 479 kts | 225° |
| 2026-04-24 19:29 | 51.09852 | 12.96754 | 22436 ft | 478 kts | 225° |
| 2026-04-24 19:29 | 51.07398 | 12.93283 | 22411 ft | 479 kts | 225° |
| 2026-04-24 19:29 | 51.04908 | 12.89765 | 22394 ft | 478 kts | 225° |
| 2026-04-24 19:30 | 51.02422 | 12.86253 | 22363 ft | 478 kts | 225° |
| 2026-04-24 19:30 | 50.99943 | 12.82754 | 22310 ft | 477 kts | 225° |
| 2026-04-24 19:30 | 50.97466 | 12.79261 | 22261 ft | 475 kts | 225° |
| 2026-04-24 19:30 | 50.95004 | 12.75789 | 22204 ft | 477 kts | 225° |
| 2026-04-24 19:31 | 50.92521 | 12.72288 | 22134 ft | 474 kts | 225° |
| 2026-04-24 19:31 | 50.90055 | 12.68815 | 22050 ft | 475 kts | 225° |
| 2026-04-24 19:31 | 50.87587 | 12.65343 | 22029 ft | 474 kts | 225° |
| 2026-04-24 19:31 | 50.85124 | 12.61884 | 22024 ft | 475 kts | 225° |
| 2026-04-24 19:32 | 50.82787 | 12.58238 | 22057 ft | 461 kts | 240° |
| 2026-04-24 19:32 | 50.81797 | 12.53513 | 22306 ft | 461 kts | 270° |
| 2026-04-24 19:32 | 50.82470 | 12.48690 | 22441 ft | 450 kts | 300° |
| 2026-04-24 19:32 | 50.84535 | 12.44934 | 22413 ft | 457 kts | 315° |
| 2026-04-24 19:33 | 50.86775 | 12.41427 | 22404 ft | 452 kts | 315° |
| 2026-04-24 19:33 | 50.88992 | 12.37966 | 22377 ft | 454 kts | 315° |
| 2026-04-24 19:33 | 50.90907 | 12.34042 | 22291 ft | 441 kts | 285° |
| 2026-04-24 19:33 | 50.90337 | 12.29400 | 22186 ft | 475 kts | 232° |
| 2026-04-24 19:34 | 50.87460 | 12.26747 | 22051 ft | 491 kts | 204° |
| 2026-04-24 19:34 | 50.84291 | 12.24854 | 21694 ft | 482 kts | 204° |
| 2026-04-24 19:34 | 50.81161 | 12.23007 | 21332 ft | 480 kts | 204° |
| 2026-04-24 19:34 | 50.78041 | 12.21176 | 21060 ft | 477 kts | 204° |
| 2026-04-24 19:35 | 50.74934 | 12.19354 | 20778 ft | 476 kts | 204° |
| 2026-04-24 19:35 | 50.71845 | 12.17547 | 20493 ft | 472 kts | 204° |
| 2026-04-24 19:35 | 50.68760 | 12.15746 | 20192 ft | 472 kts | 204° |
| 2026-04-24 19:35 | 50.65731 | 12.13988 | 20015 ft | 469 kts | 203° |
| 2026-04-24 19:36 | 50.62604 | 12.12580 | 19991 ft | 471 kts | 185° |
| 2026-04-24 19:36 | 50.59410 | 12.13848 | 20167 ft | 492 kts | 147° |
| 2026-04-24 19:36 | 50.57265 | 12.17946 | 20480 ft | 491 kts | 109° |
| 2026-04-24 19:36 | 50.57073 | 12.23204 | 20981 ft | 492 kts | 71° |
| 2026-04-24 19:37 | 50.58531 | 12.28039 | 21271 ft | 481 kts | 51° |
| 2026-04-24 19:37 | 50.60853 | 12.31759 | 21681 ft | 480 kts | 32° |
| 2026-04-24 19:37 | 50.63718 | 12.34301 | 22057 ft | 474 kts | 24° |
| 2026-04-24 19:37 | 50.66673 | 12.36702 | 22408 ft | 477 kts | 24° |
| 2026-04-24 19:38 | 50.69630 | 12.39096 | 22774 ft | 478 kts | 24° |
| 2026-04-24 19:38 | 50.72553 | 12.41460 | 23125 ft | 480 kts | 24° |
| 2026-04-24 19:38 | 50.75537 | 12.43873 | 23429 ft | 484 kts | 24° |
| 2026-04-24 19:38 | 50.78530 | 12.46297 | 23695 ft | 483 kts | 24° |
| 2026-04-24 19:39 | 50.81524 | 12.48721 | 23932 ft | 485 kts | 24° |
| 2026-04-24 19:39 | 50.84546 | 12.51166 | 24170 ft | 489 kts | 24° |
| 2026-04-24 19:39 | 50.87575 | 12.53616 | 24406 ft | 489 kts | 24° |
| 2026-04-24 19:39 | 50.90607 | 12.56067 | 24649 ft | 491 kts | 23° |
| 2026-04-24 19:40 | 50.93670 | 12.58543 | 24863 ft | 495 kts | 23° |
| 2026-04-24 19:40 | 50.96737 | 12.61029 | 25044 ft | 495 kts | 23° |
| 2026-04-24 19:40 | 50.99762 | 12.63483 | 25222 ft | 497 kts | 23° |
| 2026-04-24 19:40 | 51.02849 | 12.65991 | 25227 ft | 498 kts | 23° |
| 2026-04-24 19:41 | 51.05923 | 12.68493 | 25220 ft | 496 kts | 23° |
| 2026-04-24 19:41 | 51.08999 | 12.70994 | 25210 ft | 498 kts | 23° |
| 2026-04-24 19:41 | 51.12079 | 12.73500 | 25209 ft | 496 kts | 23° |
| 2026-04-24 19:41 | 51.15152 | 12.76000 | 25181 ft | 497 kts | 23° |
| 2026-04-24 19:42 | 51.18235 | 12.78506 | 25149 ft | 497 kts | 23° |
| 2026-04-24 19:42 | 51.21308 | 12.81006 | 25117 ft | 495 kts | 23° |
| 2026-04-24 19:42 | 51.24381 | 12.83504 | 25079 ft | 497 kts | 23° |
| 2026-04-24 19:42 | 51.27375 | 12.86176 | 25128 ft | 477 kts | 51° |
| 2026-04-24 19:43 | 51.26739 | 12.89160 | 25341 ft | 291 kts | 209° |
| 2026-04-24 19:43 | 51.24826 | 12.87848 | 25071 ft | 365 kts | 214° |
| 2026-04-24 19:43 | 51.22102 | 12.85353 | 24621 ft | 513 kts | 214° |
| 2026-04-24 19:43 | 51.19076 | 12.82510 | 24149 ft | 498 kts | 214° |
| 2026-04-24 19:44 | 51.16097 | 12.79727 | 23721 ft | 491 kts | 214° |
| 2026-04-24 19:44 | 51.13151 | 12.77004 | 23782 ft | 493 kts | 214° |
| 2026-04-24 19:44 | 51.10182 | 12.74264 | 23823 ft | 492 kts | 214° |
| 2026-04-24 19:44 | 51.07216 | 12.71526 | 23613 ft | 495 kts | 214° |
| 2026-04-24 19:45 | 51.04277 | 12.68787 | 23058 ft | 486 kts | 214° |
| 2026-04-24 19:45 | 51.01363 | 12.66071 | 22513 ft | 484 kts | 214° |
| 2026-04-24 19:45 | 50.98480 | 12.63392 | 21974 ft | 478 kts | 214° |
| 2026-04-24 19:45 | 50.95609 | 12.60729 | 21442 ft | 476 kts | 214° |
| 2026-04-24 19:46 | 50.92761 | 12.58095 | 20923 ft | 471 kts | 214° |
| 2026-04-24 19:46 | 50.89976 | 12.55525 | 20404 ft | 469 kts | 214° |
| 2026-04-24 19:46 | 50.87170 | 12.52941 | 19886 ft | 465 kts | 213° |
| 2026-04-24 19:46 | 50.84385 | 12.50381 | 19377 ft | 462 kts | 213° |
| 2026-04-24 19:47 | 50.81611 | 12.47837 | 18877 ft | 459 kts | 213° |
| 2026-04-24 19:47 | 50.78866 | 12.45326 | 18374 ft | 454 kts | 213° |
| 2026-04-24 19:47 | 50.75897 | 12.43651 | 17771 ft | 459 kts | 186° |
| 2026-04-24 19:47 | 50.72946 | 12.45165 | 17942 ft | 468 kts | 134° |
| 2026-04-24 19:48 | 50.72149 | 12.49978 | 17679 ft | 473 kts | 66° |
| 2026-04-24 19:48 | 50.74330 | 12.53377 | 17286 ft | 463 kts | 26° |
| 2026-04-24 19:48 | 50.79716 | 12.58441 | 17961 ft | 454 kts | 30° |
| 2026-04-24 19:49 | 50.84995 | 12.63980 | 18047 ft | 447 kts | 31° |
| 2026-04-24 19:49 | 50.89570 | 12.69290 | 18119 ft | 370 kts | 30° |
| 2026-04-24 19:50 | 50.95882 | 12.76343 | 18153 ft | 368 kts | 31° |
| 2026-04-24 19:50 | 50.97957 | 12.78653 | 18122 ft | 368 kts | 32° |
| 2026-04-24 19:51 | 51.02598 | 12.81493 | 18061 ft | 357 kts | 360° |
| 2026-04-24 19:51 | 51.04936 | 12.81157 | 17976 ft | 325 kts | 340° |
| 2026-04-24 19:52 | 51.09035 | 12.77602 | 18044 ft | 344 kts | 313° |
| 2026-04-24 19:52 | 51.10421 | 12.74579 | 18016 ft | 332 kts | 297° |
| 2026-04-24 19:52 | 51.11228 | 12.71149 | 18038 ft | 325 kts | 282° |
| 2026-04-24 19:52 | 51.11407 | 12.67448 | 18046 ft | 358 kts | 268° |
| 2026-04-24 19:53 | 51.10883 | 12.63683 | 18045 ft | 358 kts | 252° |
| 2026-04-24 19:53 | 51.09716 | 12.60364 | 18038 ft | 350 kts | 235° |
| 2026-04-24 19:53 | 51.05794 | 12.55201 | 18108 ft | 361 kts | 220° |
| 2026-04-24 19:54 | 51.03747 | 12.52852 | 18101 ft | 366 kts | 220° |
| 2026-04-24 19:54 | 51.01692 | 12.50527 | 18097 ft | 361 kts | 220° |
| 2026-04-24 19:54 | 50.99657 | 12.48253 | 18102 ft | 365 kts | 220° |
| 2026-04-24 19:54 | 50.97582 | 12.45950 | 18115 ft | 364 kts | 219° |
| 2026-04-24 19:55 | 50.96193 | 12.44419 | 18111 ft | 368 kts | 219° |
| 2026-04-24 19:55 | 50.93428 | 12.41370 | 18106 ft | 367 kts | 219° |
| 2026-04-24 19:55 | 50.91334 | 12.39058 | 18094 ft | 359 kts | 219° |
| 2026-04-24 19:55 | 50.89345 | 12.36886 | 18080 ft | 346 kts | 222° |
| 2026-04-24 19:56 | 50.87282 | 12.34391 | 18136 ft | 359 kts | 221° |
| 2026-04-24 19:56 | 50.85217 | 12.32085 | 18138 ft | 369 kts | 219° |
| 2026-04-24 19:56 | 50.83144 | 12.29746 | 18124 ft | 361 kts | 220° |
| 2026-04-24 19:56 | 50.81115 | 12.27459 | 18135 ft | 355 kts | 220° |
| 2026-04-24 19:57 | 50.79128 | 12.25177 | 18145 ft | 362 kts | 221° |
| 2026-04-24 19:57 | 50.77092 | 12.22814 | 18271 ft | 359 kts | 220° |
| 2026-04-24 19:57 | 50.75123 | 12.20581 | 18963 ft | 345 kts | 221° |
| 2026-04-24 19:57 | 50.73113 | 12.18459 | 19625 ft | 352 kts | 212° |
| 2026-04-24 19:58 | 50.70681 | 12.17077 | 20148 ft | 400 kts | 194° |
| 2026-04-24 19:58 | 50.67759 | 12.17061 | 20472 ft | 429 kts | 172° |
| 2026-04-24 19:58 | 50.65038 | 12.18805 | 20534 ft | 424 kts | 146° |
| 2026-04-24 19:58 | 50.62980 | 12.22183 | 20698 ft | 435 kts | 120° |
| 2026-04-24 19:59 | 50.61941 | 12.26705 | 21154 ft | 449 kts | 96° |
| 2026-04-24 19:59 | 50.62085 | 12.31612 | 21715 ft | 449 kts | 73° |
| 2026-04-24 19:59 | 50.63249 | 12.35951 | 22155 ft | 427 kts | 53° |
| 2026-04-24 19:59 | 50.65280 | 12.39280 | 22446 ft | 418 kts | 30° |
| 2026-04-24 20:00 | 50.67768 | 12.41446 | 22702 ft | 415 kts | 24° |
| 2026-04-24 20:00 | 50.70254 | 12.43393 | 22633 ft | 415 kts | 24° |
| 2026-04-24 20:00 | 50.72912 | 12.45198 | 22172 ft | 411 kts | 18° |
| 2026-04-24 20:00 | 50.75450 | 12.46985 | 21781 ft | 402 kts | 22° |
| 2026-04-24 20:01 | 50.77957 | 12.48979 | 22309 ft | 403 kts | 23° |
| 2026-04-24 20:01 | 50.80494 | 12.51079 | 23122 ft | 431 kts | 24° |
| 2026-04-24 20:01 | 50.83103 | 12.53282 | 23919 ft | 417 kts | 24° |
| 2026-04-24 20:01 | 50.85751 | 12.55091 | 24621 ft | 414 kts | 14° |
| 2026-04-24 20:02 | 50.87571 | 12.55997 | 25096 ft | 412 kts | 12° |
| 2026-04-24 20:02 | 50.91263 | 12.57552 | 26097 ft | 408 kts | 6° |
| 2026-04-24 20:02 | 50.94060 | 12.58177 | 26857 ft | 404 kts | 1° |
| 2026-04-24 20:02 | 50.96852 | 12.58632 | 27554 ft | 405 kts | 3° |
| 2026-04-24 20:03 | 50.99604 | 12.59412 | 27946 ft | 408 kts | 6° |
| 2026-04-24 20:03 | 51.02380 | 12.60193 | 28399 ft | 399 kts | 3° |
| 2026-04-24 20:03 | 51.05162 | 12.60857 | 28839 ft | 409 kts | 4° |
| 2026-04-24 20:03 | 51.07955 | 12.61632 | 29018 ft | 405 kts | 4° |
| 2026-04-24 20:04 | 51.10705 | 12.62582 | 29098 ft | 407 kts | 16° |
| 2026-04-24 20:04 | 51.13298 | 12.64628 | 29155 ft | 425 kts | 24° |
| 2026-04-24 20:04 | 51.15823 | 12.67057 | 29153 ft | 419 kts | 26° |
| 2026-04-24 20:05 | 51.20812 | 12.71849 | 29143 ft | 417 kts | 20° |
| 2026-04-24 20:05 | 51.25955 | 12.76137 | 29142 ft | 418 kts | 23° |
| 2026-04-24 20:06 | 51.31082 | 12.80488 | 29137 ft | 418 kts | 22° |
| 2026-04-24 20:06 | 51.33760 | 12.82783 | 29148 ft | 494 kts | 23° |
| 2026-04-24 20:06 | 51.36885 | 12.85466 | 29186 ft | 516 kts | 24° |
| 2026-04-24 20:07 | 51.42120 | 12.89962 | 29164 ft | 509 kts | 23° |
| 2026-04-24 20:07 | 51.49339 | 12.96186 | 29148 ft | 506 kts | 23° |
| 2026-04-24 20:08 | 51.55554 | 13.01561 | 29128 ft | 506 kts | 23° |
| 2026-04-24 20:08 | 51.61755 | 13.06916 | 29122 ft | 507 kts | 23° |
| 2026-04-24 20:09 | 51.67917 | 13.12269 | 29116 ft | 506 kts | 23° |
| 2026-04-24 20:09 | 51.74142 | 13.17550 | 29115 ft | 501 kts | 15° |
| 2026-04-24 20:10 | 51.80834 | 13.20042 | 29133 ft | 492 kts | 4° |
| 2026-04-24 20:10 | 51.87554 | 13.20479 | 29122 ft | 484 kts | 355° |
| 2026-04-24 20:11 | 51.94268 | 13.20938 | 29118 ft | 483 kts | 356° |
| 2026-04-24 20:11 | 52.00759 | 13.21294 | 29112 ft | 487 kts | 357° |
| 2026-04-24 20:12 | 52.07657 | 13.21681 | 29111 ft | 484 kts | 357° |
| 2026-04-24 20:12 | 52.14243 | 13.22072 | 29103 ft | 486 kts | 357° |
| 2026-04-24 20:13 | 52.20983 | 13.22469 | 29105 ft | 484 kts | 357° |
| 2026-04-24 20:13 | 52.27727 | 13.22860 | 29131 ft | 485 kts | 357° |
| 2026-04-24 20:14 | 52.34244 | 13.21509 | 29132 ft | 471 kts | 336° |
| 2026-04-24 20:14 | 52.38746 | 13.18559 | 29119 ft | 467 kts | 333° |
| 2026-04-24 20:15 | 52.41943 | 13.16285 | 29109 ft | 468 kts | 332° |
| 2026-04-24 20:15 | 52.47849 | 13.12161 | 29095 ft | 469 kts | 337° |
| 2026-04-24 20:16 | 52.54072 | 13.08817 | 29111 ft | 471 kts | 336° |
| 2026-04-24 20:16 | 52.60277 | 13.05330 | 29092 ft | 472 kts | 337° |
| 2026-04-24 20:17 | 52.66490 | 13.01798 | 29088 ft | 471 kts | 337° |
| 2026-04-24 20:17 | 52.75768 | 12.96548 | 29086 ft | 472 kts | 337° |
| 2026-04-24 20:18 | 52.81970 | 12.93021 | 29087 ft | 472 kts | 337° |
| 2026-04-24 20:18 | 52.88189 | 12.89478 | 29078 ft | 471 kts | 337° |
| 2026-04-24 20:19 | 52.94386 | 12.85932 | 29083 ft | 473 kts | 337° |
| 2026-04-24 20:19 | 53.00596 | 12.82370 | 29087 ft | 471 kts | 337° |
| 2026-04-24 20:20 | 53.06829 | 12.78780 | 28255 ft | 476 kts | 337° |
| 2026-04-24 20:20 | 53.09914 | 12.77002 | 27472 ft | 478 kts | 337° |
| 2026-04-24 20:20 | 53.13061 | 12.75184 | 26709 ft | 479 kts | 337° |
| 2026-04-24 20:21 | 53.16211 | 12.73362 | 25958 ft | 480 kts | 338° |
| 2026-04-24 20:21 | 53.19379 | 12.71525 | 25221 ft | 483 kts | 338° |
| 2026-04-24 20:21 | 53.22554 | 12.69683 | 24514 ft | 484 kts | 338° |
| 2026-04-24 20:21 | 53.25740 | 12.67830 | 23823 ft | 486 kts | 338° |
| 2026-04-24 20:22 | 53.28943 | 12.65965 | 23040 ft | 489 kts | 338° |
| 2026-04-24 20:22 | 53.32161 | 12.64089 | 22245 ft | 491 kts | 338° |
| 2026-04-24 20:22 | 53.35388 | 12.62205 | 21503 ft | 491 kts | 338° |
| 2026-04-24 20:22 | 53.38617 | 12.60314 | 20744 ft | 494 kts | 338° |
| 2026-04-24 20:23 | 53.41747 | 12.58484 | 20016 ft | 462 kts | 338° |
| 2026-04-24 20:23 | 53.44608 | 12.56811 | 19287 ft | 411 kts | 338° |
| 2026-04-24 20:23 | 53.47176 | 12.55296 | 18563 ft | 376 kts | 338° |
| 2026-04-24 20:23 | 53.49675 | 12.54204 | 17777 ft | 370 kts | 354° |
| 2026-04-24 20:24 | 53.51411 | 12.54421 | 17249 ft | 373 kts | 6° |
| 2026-04-24 20:24 | 53.54703 | 12.55866 | 16228 ft | 365 kts | 12° |
| 2026-04-24 20:24 | 53.57115 | 12.57183 | 15476 ft | 362 kts | 14° |
| 2026-04-24 20:24 | 53.59469 | 12.58544 | 14703 ft | 357 kts | 14° |
| 2026-04-24 20:25 | 53.61788 | 12.59900 | 13286 ft | 347 kts | 14° |
| 2026-04-24 20:25 | 53.64028 | 12.61218 | 11821 ft | 335 kts | 15° |
| 2026-04-24 20:25 | 53.66190 | 12.62502 | 10507 ft | 323 kts | 15° |
| 2026-04-24 20:25 | 53.68249 | 12.63727 | 9176 ft | 313 kts | 15° |
| 2026-04-24 20:26 | 53.70265 | 12.64928 | 7852 ft | 303 kts | 15° |
| 2026-04-24 20:26 | 53.72218 | 12.66094 | 6621 ft | 293 kts | 15° |
| 2026-04-24 20:26 | 53.74185 | 12.67258 | 5577 ft | 293 kts | 16° |
| 2026-04-24 20:26 | 53.76010 | 12.68356 | 4905 ft | 266 kts | 16° |
| 2026-04-24 20:27 | 53.77740 | 12.69394 | 4226 ft | 258 kts | 15° |
| 2026-04-24 20:27 | 53.79417 | 12.70353 | 3670 ft | 243 kts | 15° |
| 2026-04-24 20:27 | 53.80919 | 12.71170 | 3270 ft | 220 kts | 15° |
| 2026-04-24 20:27 | 53.82358 | 12.71878 | 3162 ft | 213 kts | 6° |
| 2026-04-24 20:28 | 53.83798 | 12.71617 | 3024 ft | 203 kts | 329° |
| 2026-04-24 20:28 | 53.84792 | 12.69916 | 3048 ft | 205 kts | 304° |
| 2026-04-24 20:28 | 53.85584 | 12.67944 | 3029 ft | 204 kts | 304° |
| 2026-04-24 20:28 | 53.86383 | 12.65931 | 3015 ft | 205 kts | 304° |
| 2026-04-24 20:29 | 53.86910 | 12.64603 | 3012 ft | 206 kts | 303° |
| 2026-04-24 20:29 | 53.87936 | 12.62037 | 3011 ft | 180 kts | 304° |
| 2026-04-24 20:29 | 53.88655 | 12.60305 | 2817 ft | 177 kts | 304° |
| 2026-04-24 20:29 | 53.89243 | 12.58505 | 2614 ft | 172 kts | 290° |
| 2026-04-24 20:30 | 53.89486 | 12.56511 | 2510 ft | 173 kts | 277° |
| 2026-04-24 20:30 | 53.89611 | 12.54525 | 2324 ft | 171 kts | 277° |
| 2026-04-24 20:30 | 53.89722 | 12.52561 | 2116 ft | 167 kts | 276° |
| 2026-04-24 20:30 | 53.89839 | 12.50601 | 1935 ft | 163 kts | 278° |
| 2026-04-24 20:31 | 53.89996 | 12.48733 | 1889 ft | 163 kts | 279° |
| 2026-04-24 20:31 | 53.90199 | 12.46814 | 1907 ft | 163 kts | 281° |
| 2026-04-24 20:31 | 53.90385 | 12.45112 | 1906 ft | 149 kts | 281° |
| 2026-04-24 20:31 | 53.90535 | 12.43419 | 1788 ft | 148 kts | 278° |
| 2026-04-24 20:32 | 53.90653 | 12.41713 | 1637 ft | 145 kts | 278° |
| 2026-04-24 20:32 | 53.90778 | 12.40008 | 1468 ft | 143 kts | 279° |
| 2026-04-24 20:32 | 53.90925 | 12.38298 | 1301 ft | 146 kts | 279° |
| 2026-04-24 20:32 | 53.91075 | 12.36604 | 1071 ft | 147 kts | 279° |
| 2026-04-24 20:33 | 53.91215 | 12.34887 | 823 ft | 150 kts | 277° |
| 2026-04-24 20:33 | 53.91348 | 12.33158 | 582 ft | 149 kts | 277° |
| 2026-04-24 20:33 | 53.91482 | 12.31477 | 541 ft | 148 kts | 276° |
| 2026-04-24 20:33 | 53.91623 | 12.29742 | 629 ft | 150 kts | 277° |
| 2026-04-24 20:34 | 53.91760 | 12.28004 | 745 ft | 152 kts | 279° |
| 2026-04-24 20:34 | 53.91960 | 12.26253 | 791 ft | 149 kts | 279° |
| 2026-04-24 20:34 | 53.92144 | 12.24573 | 850 ft | 159 kts | 280° |
| 2026-04-24 20:34 | 53.91757 | 12.22453 | 1506 ft | 243 kts | 208° |
| 2026-04-24 20:35 | 53.90536 | 12.23851 | 1836 ft | 274 kts | 94° |
| 2026-04-24 20:35 | 53.90297 | 12.27102 | 1824 ft | 267 kts | 96° |
| 2026-04-24 20:35 | 53.90081 | 12.30227 | 1554 ft | 275 kts | 96° |
| 2026-04-24 20:35 | 53.90729 | 12.32279 | 1306 ft | 174 kts | 4° |
| 2026-04-24 20:36 | 53.91495 | 12.31541 | 661 ft | 126 kts | 284° |
| 2026-04-24 20:36 | 53.91653 | 12.29887 | 199 ft | 144 kts | 277° |
| 2026-04-24 20:36 | 53.91776 | 12.28335 | 146 ft | 113 kts | 277° |
| 2026-04-24 20:36 | 53.91853 | 12.27306 | 146 ft | 63 kts | 280° |
| 2026-04-24 20:37 | 53.91918 | 12.26702 | 145 ft | 52 kts | 276° |
| 2026-04-24 20:37 | 53.91958 | 12.26165 | 144 ft | 36 kts | 280° |
| 2026-04-24 20:37 | 53.92097 | 12.26172 | 145 ft | 21 kts | 30° |
| 2026-04-24 20:37 | 53.92211 | 12.26266 | 145 ft | 14 kts | 25° |
| 2026-04-24 20:38 | 53.92233 | 12.26404 | 145 ft | 13 kts | 96° |
| 2026-04-24 20:38 | 53.92219 | 12.26565 | 145 ft | 14 kts | 100° |
| 2026-04-24 20:38 | 53.92210 | 12.26705 | 146 ft | 8 kts | 79° |
| 2026-04-24 20:38 | 53.92259 | 12.26737 | 146 ft | 8 kts | 6° |
| 2026-04-24 20:39 | 53.92268 | 12.26760 | 146 ft | 1 kts | 98° |
| 2026-04-24 20:39 | 53.92268 | 12.26763 | 146 ft | 0 kts | 97° |